NCAR-RAP Real-Time Weather Data

Output produced by METARs form (08 May 2021  02:16 UTC)
found at http://weather.rap.ucar.edu/surface/
 
KEAR 080156Z AUTO 10015KT 10SM CLR 17/06 A2991 RMK AO2 SLP124 T01670056
KEAR 080056Z AUTO 09013KT 10SM CLR 19/07 A2991 RMK AO2 SLP122 T01890067
KEAR 072356Z AUTO 10016G21KT 10SM CLR 21/07 A2991 RMK AO2 SLP125 T02060067 10217 20183 56021
KEAR 072256Z AUTO 11015G21KT 10SM CLR 21/07 A2993 RMK AO2 SLP129 T02110072
KEAR 072156Z AUTO 11013G20KT 10SM CLR 22/07 A2995 RMK AO2 SLP137 T02170072
KEAR 072056Z AUTO 10013KT 10SM CLR 21/07 A2998 RMK AO2 SLP146 T02110072 56026
KEAR 071956Z AUTO 11018G24KT 10SM CLR 21/07 A3000 RMK AO2 SLP152 T02060072
KEAR 071856Z AUTO 10014G19KT 10SM CLR 19/06 A3003 RMK AO2 SLP161 T01940061
KEAR 071756Z AUTO 09015KT 10SM CLR 18/06 A3006 RMK AO2 SLP175 T01780056 10183 20061 58019
KEAR 071656Z AUTO 09012KT 10SM OVC048 16/05 A3010 RMK AO2 SLP190 T01560050
KEAR 071556Z AUTO 09007KT 10SM OVC050 14/05 A3011 RMK AO2 SLP195 T01390050
KEAR 071456Z AUTO 14007KT 10SM OVC050 13/04 A3012 RMK AO2 SLP196 T01330044 58006
KEAR 071356Z AUTO 00000KT 10SM SCT080 BKN090 12/06 A3014 RMK AO2 SLP201 T01170061
KEAR 071256Z AUTO 00000KT 10SM OVC070 09/04 A3015 RMK AO2 SLP206 T00940044
KEAR 071156Z AUTO 31004KT 8SM CLR 06/03 A3014 RMK AO2 SLP204 T00610028 10117 20056 51002